Time;durP1;ratioP1;P1;durP2;ratioP2;P2;SDS_P1;SDS_P2;PMS_P1;PMS_P2;Temp;Humidity;BMP_temperature;BMP_pressure;BME280_temperature;BME280_humidity;BME280_pressure;Samples;Min_cycle;Max_cycle;Signal;HPM_P1;HPM_P2
2023/04/15 00:01:33;;;;;;;;;;;7.70;99.90;;;;;;5008670;28;20400;-92
2023/04/15 00:04:00;;;;;;;;;;;7.70;99.90;;;;;;5003723;28;19935;-91
2023/04/15 00:06:28;;;;;;;;;;;7.70;99.90;;;;;;5010460;28;19925;-90
2023/04/15 00:08:55;;;;;;;;;;;7.60;99.90;;;;;;5006237;28;19925;-92
2023/04/15 00:11:23;;;;;;;;;;;7.60;99.90;;;;;;5010351;28;19932;-91
2023/04/15 00:13:50;;;;;;;;;;;7.60;99.90;;;;;;5016206;28;19933;-91
2023/04/15 00:16:17;;;;;;;;;;;7.60;99.90;;;;;;5009519;28;19980;-92
2023/04/15 00:18:43;;;;;;;;;;;7.60;99.90;;;;;;5004794;28;19933;-92
2023/04/15 00:21:10;;;;;;;;;;;7.60;99.90;;;;;;5006502;28;19983;-91
2023/04/15 00:23:39;;;;;;;;;;;7.60;99.90;;;;;;5010018;28;19926;-89
2023/04/15 00:26:06;;;;;;;;;;;7.50;99.90;;;;;;5006388;28;19933;-92
2023/04/15 00:28:33;;;;;;;;;;;7.50;99.90;;;;;;5007798;28;20501;-92
2023/04/15 00:31:00;;;;;;;;;;;7.50;99.90;;;;;;5011144;28;19925;-93
2023/04/15 00:33:27;;;;;;;;;;;7.40;99.90;;;;;;5010299;28;19972;-90
2023/04/15 00:35:54;;;;;;;;;;;7.40;99.90;;;;;;5008110;28;20327;-91
2023/04/15 00:38:21;;;;;;;;;;;7.40;99.90;;;;;;5008956;28;19934;-91
2023/04/15 00:40:49;;;;;;;;;;;7.40;99.90;;;;;;5024270;28;19968;-90
2023/04/15 00:43:17;;;;;;;;;;;7.30;99.90;;;;;;5003017;28;20358;-95
2023/04/15 00:45:45;;;;;;;;;;;7.40;99.90;;;;;;5013491;28;20326;-90
2023/04/15 00:48:14;;;;;;;;;;;7.30;99.90;;;;;;5010666;28;19932;-92
2023/04/15 00:50:41;;;;;;;;;;;7.30;99.90;;;;;;5007064;28;19929;-92
2023/04/15 00:53:08;;;;;;;;;;;7.30;99.90;;;;;;5008422;28;19932;-92
2023/04/15 00:55:35;;;;;;;;;;;7.30;99.90;;;;;;5025504;28;19930;-95
2023/04/15 00:58:04;;;;;;;;;;;7.20;99.90;;;;;;5030990;28;20240;-93
2023/04/15 01:00:31;;;;;;;;;;;7.20;99.90;;;;;;5030732;28;19930;-93
2023/04/15 01:02:58;;;;;;;;;;;7.20;99.90;;;;;;5020094;28;20243;-92
2023/04/15 01:05:26;;;;;;;;;;;7.20;99.90;;;;;;5010223;28;20006;-93
2023/04/15 01:07:53;;;;;;;;;;;7.10;99.90;;;;;;5004621;28;19979;-90
2023/04/15 01:10:21;;;;;;;;;;;7.10;99.90;;;;;;5011078;28;19926;-91
2023/04/15 01:12:48;;;;;;;;;;;7.10;99.90;;;;;;5020909;28;19929;-93
2023/04/15 01:15:17;;;;;;;;;;;7.10;99.90;;;;;;5015545;28;19972;-92
2023/04/15 01:17:44;;;;;;;;;;;7.00;99.90;;;;;;5013112;28;20376;-91
2023/04/15 01:20:15;;;;;;;;;;;7.10;99.90;;;;;;5021514;28;20312;-93
2023/04/15 01:22:44;;;;;;;;;;;7.00;99.90;;;;;;5015166;28;20043;-93
2023/04/15 01:25:13;;;;;;;;;;;7.00;99.90;;;;;;5010750;28;20016;-91
2023/04/15 01:27:42;;;;;;;;;;;7.00;99.90;;;;;;5014962;28;20391;-91
2023/04/15 01:30:14;;;;;;;;;;;7.00;99.90;;;;;;5030858;28;19934;-93
2023/04/15 01:32:42;;;;;;;;;;;7.00;99.90;;;;;;5018840;28;19929;-91
2023/04/15 01:35:10;;;;;;;;;;;7.00;99.90;;;;;;5013276;28;19972;-92
2023/04/15 01:37:37;;;;;;;;;;;6.90;99.90;;;;;;5008509;28;19925;-92
2023/04/15 01:40:05;;;;;;;;;;;6.90;99.90;;;;;;5010162;28;19933;-91
2023/04/15 01:42:33;;;;;;;;;;;6.90;99.90;;;;;;5010459;28;20308;-92
2023/04/15 01:45:03;;;;;;;;;;;6.90;99.90;;;;;;5012596;28;19932;-93
2023/04/15 01:47:32;;;;;;;;;;;6.90;99.90;;;;;;5019706;28;20024;-92
2023/04/15 01:50:00;;;;;;;;;;;6.90;99.90;;;;;;5016085;28;19925;-92
2023/04/15 01:52:32;;;;;;;;;;;6.90;99.90;;;;;;5028977;28;19932;-93
2023/04/15 01:55:00;;;;;;;;;;;6.90;99.90;;;;;;5014367;28;20307;-91
2023/04/15 01:57:33;;;;;;;;;;;6.90;99.90;;;;;;5015904;28;19925;-91
2023/04/15 02:00:06;;;;;;;;;;;6.90;99.90;;;;;;5014589;28;19999;-93
2023/04/15 02:02:40;;;;;;;;;;;6.80;99.90;;;;;;5012428;28;19925;-91
2023/04/15 02:05:09;;;;;;;;;;;6.80;99.90;;;;;;5013630;28;19926;-94
2023/04/15 02:07:38;;;;;;;;;;;6.80;99.90;;;;;;5010790;28;19933;-92
2023/04/15 02:10:06;;;;;;;;;;;6.80;99.90;;;;;;5014185;28;20400;-92
2023/04/15 02:12:39;;;;;;;;;;;6.80;99.90;;;;;;5014963;28;19925;-92
2023/04/15 02:15:09;;;;;;;;;;;6.80;99.90;;;;;;5022387;28;19926;-91
2023/04/15 02:17:37;;;;;;;;;;;6.80;99.90;;;;;;5011558;28;19926;-91
2023/04/15 02:20:06;;;;;;;;;;;6.70;99.90;;;;;;5014107;28;19941;-91
2023/04/15 02:22:36;;;;;;;;;;;6.70;99.90;;;;;;5013926;28;19983;-92
2023/04/15 02:25:09;;;;;;;;;;;6.70;99.90;;;;;;5013725;28;20016;-92
2023/04/15 02:27:37;;;;;;;;;;;6.70;99.90;;;;;;5011380;28;19926;-91
2023/04/15 02:30:06;;;;;;;;;;;6.70;99.90;;;;;;5009278;28;19965;-92
2023/04/15 02:32:37;;;;;;;;;;;6.60;99.90;;;;;;5021421;28;19948;-91
2023/04/15 02:35:06;;;;;;;;;;;6.60;99.90;;;;;;5010870;28;19925;-93
2023/04/15 02:37:42;;;;;;;;;;;6.60;99.90;;;;;;5020891;28;19929;-91
2023/04/15 02:40:12;;;;;;;;;;;6.60;99.90;;;;;;5014831;28;19992;-91
2023/04/15 02:42:41;;;;;;;;;;;6.60;99.90;;;;;;5012085;28;19926;-92
2023/04/15 02:45:12;;;;;;;;;;;6.60;99.90;;;;;;5011589;28;19937;-91
2023/04/15 02:47:44;;;;;;;;;;;6.60;99.90;;;;;;5010778;28;20470;-92
2023/04/15 02:50:12;;;;;;;;;;;6.60;99.90;;;;;;5032343;28;19933;-91
2023/04/15 02:52:42;;;;;;;;;;;6.60;99.90;;;;;;5016192;28;19925;-92
2023/04/15 02:55:14;;;;;;;;;;;6.50;99.90;;;;;;5012227;28;20379;-93
2023/04/15 02:57:41;;;;;;;;;;;6.50;99.90;;;;;;5019533;28;19925;-92
2023/04/15 03:00:11;;;;;;;;;;;6.50;99.90;;;;;;5009588;28;19952;-91
2023/04/15 03:02:43;;;;;;;;;;;6.50;99.90;;;;;;5009171;28;20285;-91
2023/04/15 03:05:12;;;;;;;;;;;6.50;99.90;;;;;;5014449;28;19933;-91
2023/04/15 03:07:43;;;;;;;;;;;6.40;99.90;;;;;;5027973;28;20831;-93
2023/04/15 03:10:11;;;;;;;;;;;6.50;99.90;;;;;;5010402;28;20028;-91
2023/04/15 03:12:39;;;;;;;;;;;6.40;99.90;;;;;;5012118;28;19937;-91
2023/04/15 03:15:09;;;;;;;;;;;6.40;99.90;;;;;;5010915;28;20299;-91
2023/04/15 03:17:44;;;;;;;;;;;6.40;99.90;;;;;;5016267;28;19931;-91
2023/04/15 03:20:14;;;;;;;;;;;6.40;99.90;;;;;;5015245;28;19960;-91
2023/04/15 03:22:42;;;;;;;;;;;6.40;99.90;;;;;;5009110;28;21573;-92
2023/04/15 03:25:10;;;;;;;;;;;6.40;99.90;;;;;;5014167;28;19929;-92
2023/04/15 03:27:39;;;;;;;;;;;6.40;99.90;;;;;;5007873;28;19988;-92
2023/04/15 03:30:09;;;;;;;;;;;6.30;99.90;;;;;;5018147;28;19933;-92
2023/04/15 03:32:41;;;;;;;;;;;6.30;99.90;;;;;;5015872;28;19929;-91
2023/04/15 03:35:13;;;;;;;;;;;6.30;99.90;;;;;;5018891;28;19925;-91
2023/04/15 03:37:41;;;;;;;;;;;6.30;99.90;;;;;;5014680;28;19926;-94
2023/04/15 03:40:10;;;;;;;;;;;6.30;99.90;;;;;;5012324;28;20304;-91
2023/04/15 03:42:40;;;;;;;;;;;6.30;99.90;;;;;;5012024;28;19996;-94
2023/04/15 03:45:08;;;;;;;;;;;6.30;99.90;;;;;;5017735;28;19925;-91
2023/04/15 03:47:39;;;;;;;;;;;6.30;99.90;;;;;;5015277;28;20046;-93
2023/04/15 03:50:07;;;;;;;;;;;6.30;99.90;;;;;;5011360;28;20408;-91
2023/04/15 03:52:37;;;;;;;;;;;6.20;99.90;;;;;;5008793;28;19979;-91
2023/04/15 03:55:07;;;;;;;;;;;6.20;99.90;;;;;;5013767;28;19953;-92
2023/04/15 03:57:37;;;;;;;;;;;6.20;99.90;;;;;;5011216;28;19925;-91
2023/04/15 04:00:05;;;;;;;;;;;6.20;99.90;;;;;;5012572;28;19926;-91
2023/04/15 04:02:38;;;;;;;;;;;6.20;99.90;;;;;;5012039;28;20300;-91
2023/04/15 04:05:06;;;;;;;;;;;6.20;99.90;;;;;;5011730;28;19995;-95
2023/04/15 04:07:33;;;;;;;;;;;6.20;99.90;;;;;;5008330;28;20028;-91
2023/04/15 04:10:02;;;;;;;;;;;6.20;99.90;;;;;;5015023;28;19926;-92
2023/04/15 04:12:29;;;;;;;;;;;6.10;99.90;;;;;;5008223;28;19934;-90
2023/04/15 04:14:56;;;;;;;;;;;6.10;99.90;;;;;;5015731;28;19968;-90
2023/04/15 04:17:24;;;;;;;;;;;6.10;99.90;;;;;;5013572;28;19926;-92
2023/04/15 04:19:51;;;;;;;;;;;6.10;99.90;;;;;;5011229;28;19929;-91
2023/04/15 04:22:22;;;;;;;;;;;6.20;99.90;;;;;;5013248;28;19929;-94
2023/04/15 04:24:49;;;;;;;;;;;6.10;99.90;;;;;;5009925;28;19925;-91
2023/04/15 04:27:18;;;;;;;;;;;6.10;99.90;;;;;;5014636;28;19944;-91
2023/04/15 04:29:48;;;;;;;;;;;6.10;99.90;;;;;;5010753;28;19929;-90
2023/04/15 04:32:15;;;;;;;;;;;6.10;99.90;;;;;;5031529;28;19913;-94
2023/04/15 04:34:43;;;;;;;;;;;6.10;99.90;;;;;;5046729;28;19913;-96
2023/04/15 04:37:10;;;;;;;;;;;6.10;99.90;;;;;;5023736;28;19929;-94
2023/04/15 04:39:37;;;;;;;;;;;6.00;99.90;;;;;;5010638;28;20508;-92
2023/04/15 04:42:04;;;;;;;;;;;6.10;99.90;;;;;;5007696;28;19969;-93
2023/04/15 04:44:33;;;;;;;;;;;6.00;99.90;;;;;;5026289;28;20174;-91
2023/04/15 04:47:00;;;;;;;;;;;6.00;99.90;;;;;;5014006;28;19929;-89
2023/04/15 04:49:27;;;;;;;;;;;6.00;99.90;;;;;;5010541;28;19925;-92
2023/04/15 04:51:55;;;;;;;;;;;5.90;99.90;;;;;;5013608;28;19936;-93
2023/04/15 04:54:22;;;;;;;;;;;6.00;99.90;;;;;;5014879;28;19925;-92
2023/04/15 04:56:49;;;;;;;;;;;5.90;99.90;;;;;;5009619;28;19948;-90
2023/04/15 04:59:16;;;;;;;;;;;6.00;99.90;;;;;;5016879;28;20349;-91
2023/04/15 05:01:45;;;;;;;;;;;5.90;99.90;;;;;;5017830;28;19932;-94
2023/04/15 05:04:12;;;;;;;;;;;5.90;99.90;;;;;;5011657;28;19929;-91
2023/04/15 05:06:40;;;;;;;;;;;5.90;99.90;;;;;;5018880;28;19929;-90
2023/04/15 05:09:07;;;;;;;;;;;5.90;99.90;;;;;;5015101;28;19926;-90
2023/04/15 05:11:34;;;;;;;;;;;5.90;99.90;;;;;;5016898;28;20020;-90
2023/04/15 05:14:01;;;;;;;;;;;5.90;99.90;;;;;;5011355;28;19978;-91
2023/04/15 05:16:28;;;;;;;;;;;5.80;99.90;;;;;;5027755;28;20300;-93
2023/04/15 05:18:57;;;;;;;;;;;5.80;99.90;;;;;;5037636;28;19926;-93
2023/04/15 05:21:24;;;;;;;;;;;5.80;99.90;;;;;;5032104;28;19937;-94
2023/04/15 05:23:54;;;;;;;;;;;5.80;99.90;;;;;;5031133;28;19937;-93
2023/04/15 05:26:23;;;;;;;;;;;5.80;99.90;;;;;;5022541;28;19933;-91
2023/04/15 05:28:50;;;;;;;;;;;5.80;99.90;;;;;;5008175;28;19933;-91
2023/04/15 05:31:17;;;;;;;;;;;5.70;99.90;;;;;;5014972;28;19952;-90
2023/04/15 05:33:44;;;;;;;;;;;5.80;99.90;;;;;;5017166;28;19925;-91
2023/04/15 05:36:12;;;;;;;;;;;5.80;99.90;;;;;;5014324;28;20020;-90
2023/04/15 05:38:39;;;;;;;;;;;5.70;99.90;;;;;;5016636;28;19925;-90
2023/04/15 05:41:07;;;;;;;;;;;5.70;99.90;;;;;;5015488;28;19934;-91
2023/04/15 05:43:34;;;;;;;;;;;5.70;99.90;;;;;;5022039;28;20021;-90
2023/04/15 05:46:03;;;;;;;;;;;5.70;99.90;;;;;;5013906;28;19932;-90
2023/04/15 05:48:33;;;;;;;;;;;5.70;99.90;;;;;;5037372;28;19929;-91
2023/04/15 05:51:00;;;;;;;;;;;5.70;99.90;;;;;;5018495;28;20187;-91
2023/04/15 05:53:28;;;;;;;;;;;5.70;99.90;;;;;;5015357;28;19929;-90
2023/04/15 05:55:55;;;;;;;;;;;5.70;99.90;;;;;;5023093;28;19913;-92
2023/04/15 05:58:28;;;;;;;;;;;5.60;99.90;;;;;;5019506;28;19926;-91
2023/04/15 06:00:55;;;;;;;;;;;5.70;99.90;;;;;;5015654;28;20568;-92
2023/04/15 06:03:22;;;;;;;;;;;5.60;99.90;;;;;;5023105;28;19925;-95
2023/04/15 06:05:50;;;;;;;;;;;5.60;99.90;;;;;;5021116;28;19925;-91
2023/04/15 06:08:18;;;;;;;;;;;5.60;99.90;;;;;;5020085;28;19933;-93
2023/04/15 06:10:46;;;;;;;;;;;5.60;99.90;;;;;;5017725;28;19925;-92
2023/04/15 06:13:13;;;;;;;;;;;5.60;99.90;;;;;;5017022;28;19925;-92
2023/04/15 06:15:41;;;;;;;;;;;5.60;99.90;;;;;;5018205;28;20169;-89
2023/04/15 06:18:08;;;;;;;;;;;5.60;99.90;;;;;;5019427;28;19968;-90
2023/04/15 06:20:35;;;;;;;;;;;5.60;99.90;;;;;;5013468;28;19989;-93
2023/04/15 06:23:02;;;;;;;;;;;5.60;99.90;;;;;;5028404;28;19930;-91
2023/04/15 06:25:29;;;;;;;;;;;5.60;99.90;;;;;;5018816;28;19988;-90
2023/04/15 06:27:58;;;;;;;;;;;5.60;99.90;;;;;;5016696;28;19925;-91
2023/04/15 06:30:25;;;;;;;;;;;5.60;99.90;;;;;;5018251;28;19926;-91
2023/04/15 06:32:53;;;;;;;;;;;5.50;99.90;;;;;;5015858;28;19972;-91
2023/04/15 06:35:20;;;;;;;;;;;5.50;99.90;;;;;;5014265;28;19933;-92
2023/04/15 06:37:47;;;;;;;;;;;5.50;99.90;;;;;;5027237;28;19934;-91
2023/04/15 06:40:15;;;;;;;;;;;5.60;99.90;;;;;;5015936;28;19933;-91
2023/04/15 06:42:42;;;;;;;;;;;5.50;99.90;;;;;;5018921;28;19933;-95
2023/04/15 06:45:11;;;;;;;;;;;5.50;99.90;;;;;;5019773;28;20466;-91
2023/04/15 06:47:38;;;;;;;;;;;5.50;99.90;;;;;;5021138;28;19925;-91
2023/04/15 06:50:06;;;;;;;;;;;5.50;99.90;;;;;;5021021;28;19933;-92
2023/04/15 06:52:33;;;;;;;;;;;5.40;99.90;;;;;;5021284;28;19960;-90
2023/04/15 06:55:01;;;;;;;;;;;5.40;99.90;;;;;;5022983;28;19959;-93
2023/04/15 06:57:28;;;;;;;;;;;5.50;99.90;;;;;;5023896;28;19933;-90
2023/04/15 06:59:56;;;;;;;;;;;5.40;99.90;;;;;;5020164;28;20026;-92
2023/04/15 07:02:25;;;;;;;;;;;5.40;99.90;;;;;;5022150;28;19936;-90
2023/04/15 07:04:52;;;;;;;;;;;5.40;99.90;;;;;;5022564;28;20160;-91
2023/04/15 07:07:20;;;;;;;;;;;5.40;99.90;;;;;;5019977;28;20580;-94
2023/04/15 07:09:47;;;;;;;;;;;5.40;99.90;;;;;;5013828;28;19967;-93
2023/04/15 07:12:14;;;;;;;;;;;5.40;99.90;;;;;;5021917;28;20004;-90
2023/04/15 07:14:41;;;;;;;;;;;5.40;99.90;;;;;;5025157;28;19926;-92
2023/04/15 07:17:09;;;;;;;;;;;5.40;99.90;;;;;;5022384;28;19925;-93
2023/04/15 07:19:38;;;;;;;;;;;5.40;99.90;;;;;;5025037;28;19933;-90
2023/04/15 07:22:06;;;;;;;;;;;5.40;99.90;;;;;;5024489;28;19975;-93
2023/04/15 07:24:34;;;;;;;;;;;5.40;99.90;;;;;;5018012;28;19933;-90
2023/04/15 07:27:02;;;;;;;;;;;5.40;99.90;;;;;;5027057;28;19926;-92
2023/04/15 07:29:30;;;;;;;;;;;5.40;99.90;;;;;;5006288;28;20059;-92
2023/04/15 07:32:00;;;;;;;;;;;5.40;99.90;;;;;;5022960;28;19969;-92
2023/04/15 07:34:27;;;;;;;;;;;5.50;99.90;;;;;;5019141;28;19925;-91
2023/04/15 07:36:57;;;;;;;;;;;5.50;99.90;;;;;;5015099;28;19930;-93
2023/04/15 07:39:24;;;;;;;;;;;5.50;99.90;;;;;;5027181;28;19948;-92
2023/04/15 07:41:52;;;;;;;;;;;5.50;99.90;;;;;;5032131;28;19925;-91
2023/04/15 07:44:19;;;;;;;;;;;5.50;99.90;;;;;;5019792;28;20396;-91
2023/04/15 07:46:46;;;;;;;;;;;5.60;99.90;;;;;;5006472;28;19933;-94
2023/04/15 07:49:14;;;;;;;;;;;5.60;99.90;;;;;;5014848;28;19973;-91
2023/04/15 07:51:42;;;;;;;;;;;5.60;99.90;;;;;;5007598;28;19925;-92
2023/04/15 07:54:13;;;;;;;;;;;5.60;99.90;;;;;;5003975;28;19925;-91
2023/04/15 07:56:43;;;;;;;;;;;5.60;99.90;;;;;;5010517;28;19939;-91
2023/04/15 07:59:10;;;;;;;;;;;5.60;99.90;;;;;;5035321;28;20024;-92
2023/04/15 08:01:39;;;;;;;;;;;5.60;99.90;;;;;;5008037;28;19929;-90
2023/04/15 08:04:09;;;;;;;;;;;5.60;99.90;;;;;;5015459;28;19988;-91
2023/04/15 08:06:39;;;;;;;;;;;5.70;99.90;;;;;;5007528;28;19940;-91
2023/04/15 08:09:07;;;;;;;;;;;5.70;99.90;;;;;;5004709;28;20073;-93
2023/04/15 08:11:39;;;;;;;;;;;5.70;99.90;;;;;;5026590;28;19985;-91
2023/04/15 08:14:11;;;;;;;;;;;5.70;99.90;;;;;;5024327;28;19933;-92
2023/04/15 08:16:39;;;;;;;;;;;5.70;99.90;;;;;;5016207;28;20235;-93
2023/04/15 08:19:06;;;;;;;;;;;5.80;99.90;;;;;;5017255;28;20242;-93
2023/04/15 08:21:34;;;;;;;;;;;5.80;99.90;;;;;;5014335;28;19934;-92
2023/04/15 08:24:02;;;;;;;;;;;5.90;99.90;;;;;;5014588;28;19936;-92
2023/04/15 08:26:29;;;;;;;;;;;5.90;99.90;;;;;;5017226;28;19934;-93
2023/04/15 08:28:58;;;;;;;;;;;5.90;99.90;;;;;;5015415;28;19925;-93
2023/04/15 08:31:30;;;;;;;;;;;5.90;99.90;;;;;;5013082;28;19933;-91
2023/04/15 08:33:58;;;;;;;;;;;6.00;99.90;;;;;;5015175;28;19925;-93
2023/04/15 08:36:25;;;;;;;;;;;6.00;99.90;;;;;;5019911;28;19939;-90
2023/04/15 08:38:52;;;;;;;;;;;6.00;99.90;;;;;;5016946;28;19975;-89
2023/04/15 08:41:21;;;;;;;;;;;6.30;99.90;;;;;;5001584;28;20315;-89
2023/04/15 08:43:51;;;;;;;;;;;6.50;99.90;;;;;;5011278;28;19929;-85
2023/04/15 08:46:20;;;;;;;;;;;6.60;99.90;;;;;;5005441;28;19936;-85
2023/04/15 08:48:48;;;;;;;;;;;6.70;99.90;;;;;;5024777;28;19949;-88
2023/04/15 08:51:16;;;;;;;;;;;6.80;99.90;;;;;;5000090;28;19948;-85
2023/04/15 08:53:45;;;;;;;;;;;6.80;99.90;;;;;;5003106;28;19960;-85
2023/04/15 08:56:12;;;;;;;;;;;6.80;99.90;;;;;;5030013;28;20441;-83
2023/04/15 08:58:42;;;;;;;;;;;6.90;99.90;;;;;;5017684;28;19933;-86
2023/04/15 09:01:09;;;;;;;;;;;6.90;99.90;;;;;;5013140;28;20664;-85
2023/04/15 09:03:37;;;;;;;;;;;7.00;99.90;;;;;;5017249;28;19933;-87
2023/04/15 09:06:04;;;;;;;;;;;7.00;99.90;;;;;;5007942;28;19929;-87
2023/04/15 09:08:31;;;;;;;;;;;7.10;99.90;;;;;;5012454;28;20478;-89
2023/04/15 09:10:58;;;;;;;;;;;7.20;99.90;;;;;;5014849;28;19932;-89
2023/04/15 09:13:25;;;;;;;;;;;7.20;99.90;;;;;;5017562;28;19929;-84
2023/04/15 09:15:53;;;;;;;;;;;7.20;99.90;;;;;;5010009;28;19932;-83
2023/04/15 09:18:27;;;;;;;;;;;7.30;99.90;;;;;;5009861;28;20371;-89
2023/04/15 09:20:55;;;;;;;;;;;7.40;99.90;;;;;;5010913;28;19933;-86
2023/04/15 09:23:22;;;;;;;;;;;7.40;99.90;;;;;;5004229;28;19925;-85
2023/04/15 09:25:49;;;;;;;;;;;7.40;99.90;;;;;;5014576;28;19925;-85
2023/04/15 09:28:23;;;;;;;;;;;7.40;99.90;;;;;;4994546;28;19926;-82
2023/04/15 09:30:51;;;;;;;;;;;7.50;99.90;;;;;;5012222;28;19935;-83
2023/04/15 09:33:18;;;;;;;;;;;7.60;99.90;;;;;;5004887;28;19973;-91
2023/04/15 09:35:58;;;;;;;;;;;7.60;99.90;;;;;;4996128;28;20407;-89
2023/04/15 09:38:27;;;;;;;;;;;7.70;99.90;;;;;;4995521;28;20013;-88
2023/04/15 09:40:54;;;;;;;;;;;7.70;99.90;;;;;;5000103;28;19941;-88
2023/04/15 09:43:21;;;;;;;;;;;7.70;99.90;;;;;;5005251;28;19930;-92
2023/04/15 09:45:48;;;;;;;;;;;7.80;99.90;;;;;;5004621;28;19926;-92
2023/04/15 09:48:16;;;;;;;;;;;7.90;99.90;;;;;;5002526;28;19929;-90
2023/04/15 09:50:43;;;;;;;;;;;7.90;99.90;;;;;;5000803;28;19929;-91
2023/04/15 09:53:10;;;;;;;;;;;7.90;99.90;;;;;;5002019;28;19936;-90
2023/04/15 09:55:38;;;;;;;;;;;8.00;99.90;;;;;;4998607;28;19948;-89
2023/04/15 09:58:08;;;;;;;;;;;8.00;99.90;;;;;;4999056;28;20382;-89
2023/04/15 10:00:36;;;;;;;;;;;8.10;99.90;;;;;;5009278;28;19925;-89
2023/04/15 10:03:03;;;;;;;;;;;8.10;99.90;;;;;;4997844;28;19940;-87
2023/04/15 10:05:30;;;;;;;;;;;8.10;99.90;;;;;;4999996;28;19925;-87
2023/04/15 10:07:57;;;;;;;;;;;8.10;99.90;;;;;;5003982;28;20403;-89
2023/04/15 10:10:24;;;;;;;;;;;8.20;99.90;;;;;;5000078;28;20017;-80
2023/04/15 10:12:53;;;;;;;;;;;8.20;99.90;;;;;;5009936;28;19937;-87
2023/04/15 10:15:21;;;;;;;;;;;8.30;99.90;;;;;;5006829;28;19925;-90
2023/04/15 10:17:57;;;;;;;;;;;8.30;99.90;;;;;;5007894;28;19925;-93
2023/04/15 10:23:11;;;;;;;;;;;8.20;99.90;;;;;;5005981;28;19925;-91
2023/04/15 10:25:38;;;;;;;;;;;8.20;99.90;;;;;;5012095;28;20343;-91
2023/04/15 10:28:08;;;;;;;;;;;8.20;99.90;;;;;;5009972;28;19925;-92
2023/04/15 10:30:38;;;;;;;;;;;8.20;99.90;;;;;;5000973;28;19939;-94
2023/04/15 10:33:06;;;;;;;;;;;8.20;99.90;;;;;;5006930;28;19932;-92
2023/04/15 10:35:39;;;;;;;;;;;8.20;99.90;;;;;;5007021;28;19960;-92
2023/04/15 10:38:28;;;;;;;;;;;8.20;99.90;;;;;;4999190;28;19933;-92
2023/04/15 10:41:12;;;;;;;;;;;8.20;99.90;;;;;;5005340;28;19933;-92
2023/04/15 10:43:40;;;;;;;;;;;8.30;99.90;;;;;;5002426;28;19926;-92
2023/04/15 10:46:07;;;;;;;;;;;8.20;99.90;;;;;;5026271;28;19933;-92
2023/04/15 10:48:34;;;;;;;;;;;8.30;99.90;;;;;;5011750;28;20109;-90
2023/04/15 10:51:02;;;;;;;;;;;8.30;99.90;;;;;;5007747;28;19996;-90
2023/04/15 10:53:30;;;;;;;;;;;8.30;99.90;;;;;;5016767;28;20392;-94
2023/04/15 10:55:57;;;;;;;;;;;8.40;99.90;;;;;;5009761;28;19961;-94
2023/04/15 10:58:24;;;;;;;;;;;8.40;99.90;;;;;;5007949;28;19972;-88
2023/04/15 11:00:53;;;;;;;;;;;8.40;99.90;;;;;;5013519;28;19971;-90
2023/04/15 11:03:36;;;;;;;;;;;8.40;99.90;;;;;;5010607;28;19926;-93
2023/04/15 11:06:03;;;;;;;;;;;8.40;99.90;;;;;;5013995;28;19948;-90
2023/04/15 11:08:48;;;;;;;;;;;8.50;99.90;;;;;;5013917;28;19929;-93
2023/04/15 11:11:15;;;;;;;;;;;8.50;99.90;;;;;;5010637;28;19929;-91
2023/04/15 11:13:48;;;;;;;;;;;8.50;99.90;;;;;;5009962;28;20100;-89
2023/04/15 11:16:16;;;;;;;;;;;8.50;99.90;;;;;;5007079;28;20169;-91
2023/04/15 11:18:53;;;;;;;;;;;8.60;99.90;;;;;;5008594;28;19956;-91
2023/04/15 11:21:24;;;;;;;;;;;8.60;99.90;;;;;;5003680;28;19926;-90
2023/04/15 11:23:51;;;;;;;;;;;8.70;99.90;;;;;;5009963;28;19991;-91
2023/04/15 11:26:18;;;;;;;;;;;8.60;99.90;;;;;;5006621;28;19925;-90
2023/04/15 11:28:45;;;;;;;;;;;8.60;99.90;;;;;;5011223;28;19930;-91
2023/04/15 11:31:16;;;;;;;;;;;8.60;99.90;;;;;;5011256;28;20210;-89
2023/04/15 11:33:46;;;;;;;;;;;8.60;99.90;;;;;;5029059;28;19917;-92
2023/04/15 11:36:13;;;;;;;;;;;8.70;99.90;;;;;;5028662;28;19933;-91
2023/04/15 11:38:42;;;;;;;;;;;8.70;99.90;;;;;;5010707;28;19933;-90
2023/04/15 11:41:09;;;;;;;;;;;8.70;99.90;;;;;;5012198;28;19929;-90
2023/04/15 11:43:36;;;;;;;;;;;8.70;99.90;;;;;;5003814;28;19933;-90
2023/04/15 11:46:03;;;;;;;;;;;8.70;99.90;;;;;;5009765;28;19937;-90
2023/04/15 11:48:33;;;;;;;;;;;8.80;99.90;;;;;;5009103;28;20289;-91
2023/04/15 11:51:00;;;;;;;;;;;8.80;99.90;;;;;;5014377;28;19929;-91
2023/04/15 11:53:36;;;;;;;;;;;8.80;99.90;;;;;;5008191;28;19941;-90
2023/04/15 11:56:03;;;;;;;;;;;8.90;99.90;;;;;;5012197;28;19925;-89
2023/04/15 11:58:30;;;;;;;;;;;8.90;99.90;;;;;;5008744;28;19925;-91
2023/04/15 12:00:58;;;;;;;;;;;9.00;99.90;;;;;;5004034;28;21288;-89
2023/04/15 12:03:26;;;;;;;;;;;9.00;99.90;;;;;;5008206;28;19961;-90
2023/04/15 12:06:08;;;;;;;;;;;9.10;99.90;;;;;;5008179;28;19971;-90
2023/04/15 12:08:57;;;;;;;;;;;9.10;99.90;;;;;;5006017;28;19976;-89
2023/04/15 12:11:28;;;;;;;;;;;9.10;99.90;;;;;;5008467;28;19925;-89
2023/04/15 12:13:55;;;;;;;;;;;9.00;99.90;;;;;;5008128;28;20611;-89
2023/04/15 12:16:23;;;;;;;;;;;9.00;99.90;;;;;;5010128;28;19925;-91
2023/04/15 12:18:51;;;;;;;;;;;9.00;99.90;;;;;;5007766;28;19926;-91
2023/04/15 12:21:20;;;;;;;;;;;9.10;99.90;;;;;;5002434;28;19940;-88
2023/04/15 12:23:50;;;;;;;;;;;9.00;99.90;;;;;;5012395;28;19971;-90
2023/04/15 12:26:17;;;;;;;;;;;9.00;99.90;;;;;;5005874;28;20339;-89
2023/04/15 12:28:45;;;;;;;;;;;9.00;99.90;;;;;;5006669;28;19926;-92
2023/04/15 12:31:12;;;;;;;;;;;9.00;99.90;;;;;;5007394;28;19961;-90
2023/04/15 12:33:39;;;;;;;;;;;9.00;99.90;;;;;;5011825;28;19965;-90
2023/04/15 12:36:07;;;;;;;;;;;9.00;99.90;;;;;;5003710;28;19948;-90
2023/04/15 12:38:35;;;;;;;;;;;9.10;99.90;;;;;;5005103;28;19925;-91
2023/04/15 12:41:02;;;;;;;;;;;9.10;99.90;;;;;;5011734;28;19933;-90
2023/04/15 12:43:29;;;;;;;;;;;9.20;99.90;;;;;;5006939;28;20286;-91
2023/04/15 12:45:56;;;;;;;;;;;9.20;99.90;;;;;;5007900;28;19940;-89
2023/04/15 12:48:23;;;;;;;;;;;9.20;99.90;;;;;;5013313;28;19957;-87
2023/04/15 12:50:50;;;;;;;;;;;9.20;99.90;;;;;;5009206;28;19930;-90
2023/04/15 12:53:17;;;;;;;;;;;9.20;99.90;;;;;;5003941;28;20434;-87
2023/04/15 12:55:45;;;;;;;;;;;9.20;99.90;;;;;;5008258;28;20435;-89
2023/04/15 12:58:12;;;;;;;;;;;9.20;99.90;;;;;;5023245;28;20387;-88
2023/04/15 13:00:39;;;;;;;;;;;9.20;99.90;;;;;;5004189;28;19925;-91
2023/04/15 13:03:06;;;;;;;;;;;9.20;99.90;;;;;;5007618;28;20011;-92
2023/04/15 13:05:32;;;;;;;;;;;9.20;99.90;;;;;;5011291;28;20821;-91
2023/04/15 13:07:59;;;;;;;;;;;9.20;99.90;;;;;;5004992;28;19925;-92
2023/04/15 13:10:27;;;;;;;;;;;9.30;99.90;;;;;;5011114;28;19995;-89
2023/04/15 13:12:55;;;;;;;;;;;9.30;99.90;;;;;;5013190;28;19933;-91
2023/04/15 13:15:22;;;;;;;;;;;9.30;99.90;;;;;;5007171;28;19996;-89
2023/04/15 13:17:49;;;;;;;;;;;9.30;99.90;;;;;;5009569;28;20296;-89
2023/04/15 13:20:16;;;;;;;;;;;9.30;99.90;;;;;;5007980;28;19957;-89
2023/04/15 13:22:43;;;;;;;;;;;9.40;99.90;;;;;;5011224;28;20355;-91
2023/04/15 13:25:10;;;;;;;;;;;9.40;99.90;;;;;;5011818;28;20152;-88
2023/04/15 13:27:37;;;;;;;;;;;9.40;99.90;;;;;;5010202;28;20359;-89
2023/04/15 13:30:06;;;;;;;;;;;9.50;99.90;;;;;;5007896;28;19929;-90
2023/04/15 13:32:33;;;;;;;;;;;9.50;99.90;;;;;;5018254;28;19929;-88
2023/04/15 13:35:00;;;;;;;;;;;9.50;99.90;;;;;;5009562;28;20092;-87
2023/04/15 13:37:27;;;;;;;;;;;9.50;99.90;;;;;;5012086;28;19937;-89
2023/04/15 13:39:54;;;;;;;;;;;9.50;99.90;;;;;;5015103;28;20145;-87
2023/04/15 13:42:21;;;;;;;;;;;9.50;99.90;;;;;;5010546;28;20377;-86
2023/04/15 13:44:47;;;;;;;;;;;9.50;99.90;;;;;;5017907;28;20276;-90
2023/04/15 13:47:16;;;;;;;;;;;9.40;99.90;;;;;;5012147;28;20323;-90
2023/04/15 13:49:43;;;;;;;;;;;9.50;99.90;;;;;;5025151;28;19980;-89
2023/04/15 13:52:10;;;;;;;;;;;9.50;99.90;;;;;;5004042;28;19980;-87
2023/04/15 13:54:37;;;;;;;;;;;9.50;99.90;;;;;;5010835;28;19933;-87
2023/04/15 13:57:05;;;;;;;;;;;9.40;99.90;;;;;;5012756;28;19929;-87
2023/04/15 13:59:32;;;;;;;;;;;9.40;99.90;;;;;;5005304;28;19932;-87
2023/04/15 14:01:59;;;;;;;;;;;9.40;99.90;;;;;;5015938;28;19925;-87
2023/04/15 14:04:28;;;;;;;;;;;9.40;99.90;;;;;;5014886;28;19932;-89
2023/04/15 14:06:54;;;;;;;;;;;9.40;99.90;;;;;;5024443;28;19925;-93
2023/04/15 14:09:22;;;;;;;;;;;9.40;99.90;;;;;;5031087;28;19965;-89
2023/04/15 14:11:49;;;;;;;;;;;9.40;99.90;;;;;;5016225;28;19971;-90
2023/04/15 14:14:16;;;;;;;;;;;9.40;99.90;;;;;;5020919;28;19979;-87
2023/04/15 14:16:43;;;;;;;;;;;9.40;99.90;;;;;;5013741;28;19953;-90
2023/04/15 14:19:10;;;;;;;;;;;9.30;99.90;;;;;;5016253;28;20383;-87
2023/04/15 14:21:38;;;;;;;;;;;9.30;99.90;;;;;;5020088;28;19998;-88
2023/04/15 14:24:05;;;;;;;;;;;9.40;99.90;;;;;;5036259;28;20450;-90
2023/04/15 14:26:32;;;;;;;;;;;9.30;99.90;;;;;;5017437;28;19933;-88
2023/04/15 14:28:59;;;;;;;;;;;9.30;99.90;;;;;;5015361;28;19925;-87
2023/04/15 14:31:26;;;;;;;;;;;9.30;99.90;;;;;;5011545;28;19933;-89
2023/04/15 14:33:53;;;;;;;;;;;9.30;99.90;;;;;;5018903;28;20454;-87
2023/04/15 14:36:20;;;;;;;;;;;9.20;99.90;;;;;;5010975;28;19933;-91
2023/04/15 14:38:48;;;;;;;;;;;9.20;99.90;;;;;;5013868;28;19964;-87
2023/04/15 14:41:16;;;;;;;;;;;9.20;99.90;;;;;;5009486;28;19934;-91